Terminal Aerodrome Forecast
Issued by NWS

Home | Current Version | Previous Version | Text Only | Print | Product List | Glossary On
Versions: 1 2 3 4 5 6 7 8 9 10 11 12 13 14 15 16
000
FTUS45 KBOI 292345
TAFMYL
TAF
KMYL 292345Z 3000/3024 VRB06KT P6SM -SHRA SCT005 OVC020
     FM300600 VRB05KT 3SM -SHRA BKN005 OVC040
     FM301400 32013KT 3SM -RASN OVC009
     FM301800 32012G20KT 2SM -SHSN OVC009=

USA.gov is the U.S. government's official web portal to all federal, state and local government web resources and services.